Time;durP1;ratioP1;P1;durP2;ratioP2;P2;SDS_P1;SDS_P2;PMS_P1;PMS_P2;Temp;Humidity;BMP_temperature;BMP_pressure;BME280_temperature;BME280_humidity;BME280_pressure;Samples;Min_cycle;Max_cycle;Signal;HPM_P1;HPM_P2
2023/08/19 00:02:20;;;;;;;;;;;23.40;71.30;;;;;;5106410;27;19924;-64
2023/08/19 00:04:47;;;;;;;;;;;23.40;71.30;;;;;;5093724;28;19940;-63
2023/08/19 00:07:15;;;;;;;;;;;23.40;71.30;;;;;;5119594;27;19923;-63
2023/08/19 00:09:42;;;;;;;;;;;23.40;71.30;;;;;;5097164;27;20026;-62
2023/08/19 00:12:08;;;;;;;;;;;23.40;71.20;;;;;;5097556;28;19924;-63
2023/08/19 00:14:35;;;;;;;;;;;23.40;71.20;;;;;;5120481;27;19924;-62
2023/08/19 00:17:03;;;;;;;;;;;23.40;71.20;;;;;;5114841;27;19923;-63
2023/08/19 00:19:31;;;;;;;;;;;23.40;71.20;;;;;;5104217;28;19936;-62
2023/08/19 00:21:58;;;;;;;;;;;23.40;71.20;;;;;;5099790;27;20346;-62
2023/08/19 00:24:25;;;;;;;;;;;23.40;71.20;;;;;;5111677;27;19969;-63
2023/08/19 00:26:51;;;;;;;;;;;23.40;71.10;;;;;;5123906;27;19931;-63
2023/08/19 00:29:18;;;;;;;;;;;23.40;71.00;;;;;;5102359;27;19974;-64
2023/08/19 00:31:45;;;;;;;;;;;23.40;71.00;;;;;;5103556;28;19924;-63
2023/08/19 00:34:11;;;;;;;;;;;23.40;71.00;;;;;;5096114;28;20379;-64
2023/08/19 00:36:40;;;;;;;;;;;23.40;71.00;;;;;;5111096;27;19924;-62
2023/08/19 00:39:06;;;;;;;;;;;23.50;71.20;;;;;;5124756;27;20364;-62
2023/08/19 00:41:34;;;;;;;;;;;23.40;71.00;;;;;;5105204;27;19930;-62
2023/08/19 00:44:01;;;;;;;;;;;23.40;71.00;;;;;;5096750;28;20027;-63
2023/08/19 00:46:27;;;;;;;;;;;23.40;70.90;;;;;;5109757;27;20053;-62
2023/08/19 00:48:54;;;;;;;;;;;23.40;71.00;;;;;;5112001;28;19959;-64
2023/08/19 00:51:21;;;;;;;;;;;23.40;70.90;;;;;;5102365;28;20163;-63
2023/08/19 00:53:49;;;;;;;;;;;23.40;71.00;;;;;;5098541;27;19943;-63
2023/08/19 00:56:16;;;;;;;;;;;23.50;71.80;;;;;;5102723;27;19931;-64
2023/08/19 00:58:42;;;;;;;;;;;23.40;70.90;;;;;;5096845;27;19934;-62
2023/08/19 01:01:09;;;;;;;;;;;23.40;70.90;;;;;;5093732;28;19924;-62
2023/08/19 01:03:36;;;;;;;;;;;23.40;70.90;;;;;;5102050;28;19932;-62
2023/08/19 01:06:06;;;;;;;;;;;23.50;71.00;;;;;;5106409;27;19924;-63
2023/08/19 01:08:34;;;;;;;;;;;23.40;70.90;;;;;;5101994;27;19935;-62
2023/08/19 01:11:04;;;;;;;;;;;23.40;70.90;;;;;;5100638;28;19928;-63
2023/08/19 01:13:31;;;;;;;;;;;23.50;71.00;;;;;;5126767;27;19938;-62
2023/08/19 01:16:00;;;;;;;;;;;23.40;70.90;;;;;;5105714;27;19956;-62
2023/08/19 01:18:26;;;;;;;;;;;23.50;70.90;;;;;;5094815;28;19923;-63
2023/08/19 01:20:53;;;;;;;;;;;23.50;70.90;;;;;;5093183;28;19976;-63
2023/08/19 01:23:23;;;;;;;;;;;23.50;70.90;;;;;;5107242;27;19924;-63
2023/08/19 01:25:51;;;;;;;;;;;23.40;70.90;;;;;;5104391;27;19923;-63
2023/08/19 01:28:19;;;;;;;;;;;23.50;70.90;;;;;;5106573;28;19924;-63
2023/08/19 01:30:46;;;;;;;;;;;23.50;70.90;;;;;;5104581;27;19928;-63
2023/08/19 01:33:13;;;;;;;;;;;23.40;70.80;;;;;;5122594;27;19930;-63
2023/08/19 01:35:40;;;;;;;;;;;23.50;70.80;;;;;;5100087;28;19924;-62
2023/08/19 01:38:08;;;;;;;;;;;23.50;70.80;;;;;;5101381;28;19932;-64
2023/08/19 01:40:34;;;;;;;;;;;23.50;70.90;;;;;;5091753;28;19924;-61
2023/08/19 01:43:04;;;;;;;;;;;23.50;70.90;;;;;;5104656;28;19923;-63
2023/08/19 01:45:31;;;;;;;;;;;23.40;70.80;;;;;;5108619;28;19932;-62
2023/08/19 01:47:58;;;;;;;;;;;23.50;70.80;;;;;;5112825;28;19928;-63
2023/08/19 01:50:25;;;;;;;;;;;23.40;70.70;;;;;;5120351;28;20097;-61
2023/08/19 01:52:52;;;;;;;;;;;23.50;70.80;;;;;;5109477;28;19920;-63
2023/08/19 01:55:18;;;;;;;;;;;23.50;70.80;;;;;;5099617;28;19926;-64
2023/08/19 01:57:45;;;;;;;;;;;23.50;70.80;;;;;;5111851;28;19932;-63
2023/08/19 02:00:14;;;;;;;;;;;23.50;70.80;;;;;;5090119;28;19981;-63
2023/08/19 02:02:41;;;;;;;;;;;23.50;70.80;;;;;;5106664;28;19923;-63
2023/08/19 02:05:12;;;;;;;;;;;23.50;70.90;;;;;;5098566;28;19946;-63
2023/08/19 02:07:39;;;;;;;;;;;23.50;70.90;;;;;;5106401;28;19963;-62
2023/08/19 02:10:06;;;;;;;;;;;23.50;70.90;;;;;;5092675;28;20368;-61
2023/08/19 02:12:32;;;;;;;;;;;23.50;70.80;;;;;;5100650;28;19931;-62
2023/08/19 02:14:59;;;;;;;;;;;23.50;70.90;;;;;;5115589;28;19924;-63
2023/08/19 02:17:27;;;;;;;;;;;23.50;70.80;;;;;;5099797;28;19946;-61
2023/08/19 02:19:54;;;;;;;;;;;23.50;70.80;;;;;;5107492;28;19931;-62
2023/08/19 02:22:21;;;;;;;;;;;23.50;70.80;;;;;;5104286;28;19924;-62
2023/08/19 02:24:48;;;;;;;;;;;23.50;70.80;;;;;;5101406;28;19928;-62
2023/08/19 02:27:15;;;;;;;;;;;23.50;70.90;;;;;;5102785;28;19957;-62
2023/08/19 02:29:41;;;;;;;;;;;23.50;70.80;;;;;;5104173;28;19923;-62
2023/08/19 02:32:08;;;;;;;;;;;23.50;70.80;;;;;;5121348;28;20369;-61
2023/08/19 02:34:36;;;;;;;;;;;23.50;70.80;;;;;;5093521;28;19928;-62
2023/08/19 02:37:03;;;;;;;;;;;23.50;70.80;;;;;;5100550;28;20046;-62
2023/08/19 02:39:30;;;;;;;;;;;23.50;70.80;;;;;;5104459;28;19924;-63
2023/08/19 02:41:57;;;;;;;;;;;23.50;70.90;;;;;;5097073;28;19931;-62
2023/08/19 02:44:23;;;;;;;;;;;23.50;70.80;;;;;;5101048;28;19969;-61
2023/08/19 02:46:50;;;;;;;;;;;23.50;70.80;;;;;;5103241;28;19930;-63
2023/08/19 02:49:17;;;;;;;;;;;23.50;70.90;;;;;;5115486;27;19924;-62
2023/08/19 02:51:45;;;;;;;;;;;23.50;70.90;;;;;;5113413;27;20326;-63
2023/08/19 02:54:12;;;;;;;;;;;23.50;70.90;;;;;;5100341;28;19924;-62
2023/08/19 02:56:39;;;;;;;;;;;23.50;70.90;;;;;;5124220;27;19931;-63
2023/08/19 02:59:06;;;;;;;;;;;23.50;70.90;;;;;;5099703;28;19924;-62
2023/08/19 03:01:33;;;;;;;;;;;23.50;70.90;;;;;;5131085;27;19928;-62
2023/08/19 03:04:01;;;;;;;;;;;23.50;70.90;;;;;;5101553;28;23316;-62
2023/08/19 03:06:28;;;;;;;;;;;23.50;70.90;;;;;;5107577;27;19924;-61
2023/08/19 03:08:56;;;;;;;;;;;23.50;70.90;;;;;;5125002;27;19980;-62
2023/08/19 03:11:23;;;;;;;;;;;23.50;70.90;;;;;;5116049;27;19924;-62
2023/08/19 03:13:50;;;;;;;;;;;23.50;71.00;;;;;;5105092;27;19924;-62
2023/08/19 03:16:17;;;;;;;;;;;23.50;71.00;;;;;;5102504;28;19923;-62
2023/08/19 03:18:44;;;;;;;;;;;23.50;70.90;;;;;;5129646;27;19923;-62
2023/08/19 03:21:10;;;;;;;;;;;23.50;70.90;;;;;;5127650;27;19930;-62
2023/08/19 03:23:37;;;;;;;;;;;23.50;71.70;;;;;;5099520;28;19977;-62
2023/08/19 03:26:05;;;;;;;;;;;23.50;71.00;;;;;;5117754;27;19928;-62
2023/08/19 03:28:32;;;;;;;;;;;23.50;71.00;;;;;;5094406;28;19923;-61
2023/08/19 03:30:59;;;;;;;;;;;23.50;71.00;;;;;;5095928;28;19985;-62
2023/08/19 03:33:25;;;;;;;;;;;23.50;71.00;;;;;;5117508;27;19977;-63
2023/08/19 03:35:52;;;;;;;;;;;23.50;71.00;;;;;;5109172;27;19923;-62
2023/08/19 03:38:19;;;;;;;;;;;23.50;71.00;;;;;;5108231;28;19935;-62
2023/08/19 03:40:46;;;;;;;;;;;23.50;71.00;;;;;;5119908;27;19924;-62
2023/08/19 03:43:14;;;;;;;;;;;23.50;71.00;;;;;;5103511;28;19953;-62
2023/08/19 03:45:40;;;;;;;;;;;23.50;71.10;;;;;;5112386;27;19928;-62
2023/08/19 03:48:07;;;;;;;;;;;23.50;71.00;;;;;;5106928;27;19923;-62
2023/08/19 03:50:34;;;;;;;;;;;23.50;71.10;;;;;;5101582;27;19976;-61
2023/08/19 03:53:01;;;;;;;;;;;23.50;71.10;;;;;;5111517;28;19924;-62
2023/08/19 03:55:28;;;;;;;;;;;23.50;71.10;;;;;;5109534;27;20475;-62
2023/08/19 03:57:55;;;;;;;;;;;23.50;71.10;;;;;;5107539;27;19981;-62
2023/08/19 04:00:23;;;;;;;;;;;23.50;71.20;;;;;;5110262;27;19924;-62
2023/08/19 04:02:50;;;;;;;;;;;23.50;71.20;;;;;;5104647;27;19923;-63
2023/08/19 04:05:17;;;;;;;;;;;23.50;71.20;;;;;;5106503;27;19923;-62
2023/08/19 04:07:43;;;;;;;;;;;23.50;71.20;;;;;;5114093;27;20014;-62
2023/08/19 04:10:10;;;;;;;;;;;23.50;71.20;;;;;;5105690;28;19923;-62
2023/08/19 04:12:37;;;;;;;;;;;23.50;71.20;;;;;;5121976;27;19927;-62
2023/08/19 04:15:04;;;;;;;;;;;23.50;71.30;;;;;;5097888;28;19930;-62
2023/08/19 04:17:34;;;;;;;;;;;23.50;71.20;;;;;;5102058;27;19988;-62
2023/08/19 04:20:01;;;;;;;;;;;23.40;71.20;;;;;;5109463;28;19924;-62
2023/08/19 04:22:28;;;;;;;;;;;23.50;71.30;;;;;;5099385;27;19924;-62
2023/08/19 04:24:55;;;;;;;;;;;23.40;71.20;;;;;;5102422;28;19924;-62
2023/08/19 04:27:23;;;;;;;;;;;23.50;71.30;;;;;;5098967;27;19969;-62
2023/08/19 04:29:50;;;;;;;;;;;23.50;71.30;;;;;;5100172;28;19947;-62
2023/08/19 04:32:17;;;;;;;;;;;23.40;71.30;;;;;;5101990;28;19969;-62
2023/08/19 04:34:45;;;;;;;;;;;23.40;71.30;;;;;;5112237;27;19981;-62
2023/08/19 04:37:12;;;;;;;;;;;23.50;71.40;;;;;;5091441;28;19938;-63
2023/08/19 04:39:38;;;;;;;;;;;23.50;71.30;;;;;;5132004;27;19924;-61
2023/08/19 04:42:05;;;;;;;;;;;23.40;71.20;;;;;;5104181;27;19932;-60
2023/08/19 04:44:32;;;;;;;;;;;23.40;71.20;;;;;;5114988;27;19931;-62
2023/08/19 04:46:59;;;;;;;;;;;23.40;71.90;;;;;;5113512;27;19984;-61
2023/08/19 04:49:26;;;;;;;;;;;23.40;71.10;;;;;;5105270;27;19931;-63
2023/08/19 04:51:54;;;;;;;;;;;23.40;71.10;;;;;;5094367;27;19927;-61
2023/08/19 04:54:21;;;;;;;;;;;23.40;71.20;;;;;;5118609;27;19931;-63
2023/08/19 04:56:48;;;;;;;;;;;23.50;71.20;;;;;;5102099;27;20431;-62
2023/08/19 04:59:15;;;;;;;;;;;23.40;71.10;;;;;;5113462;27;19924;-62
2023/08/19 05:01:42;;;;;;;;;;;23.50;71.20;;;;;;5096371;28;19924;-62
2023/08/19 05:04:09;;;;;;;;;;;23.40;71.20;;;;;;5104869;27;19924;-62
2023/08/19 05:06:36;;;;;;;;;;;23.40;71.10;;;;;;5089567;27;19989;-62
2023/08/19 05:09:04;;;;;;;;;;;23.40;71.20;;;;;;5106077;27;19968;-62
2023/08/19 05:11:31;;;;;;;;;;;23.40;71.20;;;;;;5101178;27;19923;-62
2023/08/19 05:13:58;;;;;;;;;;;23.40;71.20;;;;;;5120045;27;19977;-62
2023/08/19 05:16:25;;;;;;;;;;;23.40;71.10;;;;;;5106326;27;19927;-62
2023/08/19 05:19:04;;;;;;;;;;;23.40;71.10;;;;;;5095779;27;19973;-62
2023/08/19 05:21:30;;;;;;;;;;;23.40;71.10;;;;;;5096737;28;19934;-61
2023/08/19 05:23:57;;;;;;;;;;;23.40;71.10;;;;;;5089002;27;19930;-61
2023/08/19 05:26:25;;;;;;;;;;;23.40;71.10;;;;;;5108497;27;19920;-61
2023/08/19 05:28:52;;;;;;;;;;;23.40;71.20;;;;;;5118858;27;20000;-62
2023/08/19 05:31:19;;;;;;;;;;;23.40;71.10;;;;;;5108276;27;19926;-63
2023/08/19 05:33:45;;;;;;;;;;;23.40;71.20;;;;;;5100449;28;19927;-62
2023/08/19 05:36:12;;;;;;;;;;;23.40;71.10;;;;;;5115669;27;19931;-62
2023/08/19 05:38:39;;;;;;;;;;;23.40;71.10;;;;;;5125260;27;20326;-61
2023/08/19 05:41:06;;;;;;;;;;;23.40;71.20;;;;;;5102076;28;19977;-62
2023/08/19 05:43:34;;;;;;;;;;;23.40;71.20;;;;;;5097205;28;19924;-62
2023/08/19 05:46:02;;;;;;;;;;;23.40;71.20;;;;;;5122621;28;20269;-63
2023/08/19 05:48:28;;;;;;;;;;;23.50;71.30;;;;;;5105214;28;19928;-62
2023/08/19 05:50:55;;;;;;;;;;;23.40;71.20;;;;;;5109797;28;19923;-62
2023/08/19 05:53:22;;;;;;;;;;;23.40;71.10;;;;;;5101836;28;19924;-62
2023/08/19 05:55:49;;;;;;;;;;;23.50;71.20;;;;;;5113729;28;19923;-62
2023/08/19 05:58:15;;;;;;;;;;;23.40;71.00;;;;;;5098854;28;19927;-63
2023/08/19 06:00:44;;;;;;;;;;;23.40;71.00;;;;;;5095904;28;19928;-62
2023/08/19 06:03:10;;;;;;;;;;;23.50;71.10;;;;;;5099789;28;19927;-63
2023/08/19 06:05:37;;;;;;;;;;;23.40;71.00;;;;;;5096210;28;19927;-62
2023/08/19 06:08:04;;;;;;;;;;;23.40;71.00;;;;;;5100816;28;19930;-62
2023/08/19 06:10:31;;;;;;;;;;;23.50;71.10;;;;;;5106733;28;19924;-61
2023/08/19 06:12:58;;;;;;;;;;;23.50;71.10;;;;;;5103546;28;19935;-61
2023/08/19 06:15:24;;;;;;;;;;;23.50;71.20;;;;;;5119758;28;19980;-61
2023/08/19 06:17:53;;;;;;;;;;;23.50;71.20;;;;;;5090988;28;19924;-61
2023/08/19 06:20:19;;;;;;;;;;;23.50;71.20;;;;;;5100569;28;19924;-62
2023/08/19 06:22:46;;;;;;;;;;;23.40;71.00;;;;;;5131403;27;20282;-62
2023/08/19 06:25:13;;;;;;;;;;;23.50;71.20;;;;;;5100469;28;20036;-63
2023/08/19 06:27:40;;;;;;;;;;;23.50;71.20;;;;;;5117456;27;19959;-62
2023/08/19 06:30:07;;;;;;;;;;;23.50;71.20;;;;;;5127351;27;19991;-61
2023/08/19 06:32:34;;;;;;;;;;;23.50;71.90;;;;;;5098891;28;19973;-61
2023/08/19 06:35:03;;;;;;;;;;;23.40;71.10;;;;;;5107404;28;19981;-62
2023/08/19 06:37:30;;;;;;;;;;;23.50;71.10;;;;;;5129740;27;19924;-61
2023/08/19 06:39:58;;;;;;;;;;;23.50;71.90;;;;;;5100936;27;19927;-62
2023/08/19 06:42:25;;;;;;;;;;;23.50;71.20;;;;;;5135659;27;19973;-62
2023/08/19 06:44:52;;;;;;;;;;;23.50;71.10;;;;;;5115007;27;19931;-62
2023/08/19 06:47:20;;;;;;;;;;;23.50;71.20;;;;;;5100776;28;19931;-61
2023/08/19 06:49:47;;;;;;;;;;;23.50;71.10;;;;;;5103001;27;19928;-62
2023/08/19 06:52:16;;;;;;;;;;;23.50;71.10;;;;;;5072293;27;20284;-62
2023/08/19 06:54:44;;;;;;;;;;;23.50;71.10;;;;;;5097847;27;20034;-62
2023/08/19 06:57:12;;;;;;;;;;;23.50;71.10;;;;;;5110360;28;19924;-61
2023/08/19 06:59:39;;;;;;;;;;;23.50;71.00;;;;;;5100045;27;20000;-61
2023/08/19 07:02:06;;;;;;;;;;;23.50;71.00;;;;;;5119865;27;19958;-61
2023/08/19 07:04:33;;;;;;;;;;;23.50;71.10;;;;;;5100721;27;20216;-62
2023/08/19 07:07:00;;;;;;;;;;;23.50;71.00;;;;;;5105538;27;19980;-62
2023/08/19 07:09:29;;;;;;;;;;;23.50;70.90;;;;;;5099843;28;19934;-62
2023/08/19 07:11:56;;;;;;;;;;;23.50;71.00;;;;;;5110908;28;19984;-61
2023/08/19 07:14:23;;;;;;;;;;;23.50;71.60;;;;;;5104302;27;19924;-62
2023/08/19 07:16:50;;;;;;;;;;;23.50;70.90;;;;;;5101594;27;19995;-62
2023/08/19 07:19:17;;;;;;;;;;;23.50;70.90;;;;;;5100733;28;19932;-62
2023/08/19 07:21:46;;;;;;;;;;;23.50;70.90;;;;;;5098424;27;19989;-61
2023/08/19 07:24:13;;;;;;;;;;;23.50;70.90;;;;;;5101748;28;19924;-62
2023/08/19 07:26:41;;;;;;;;;;;23.50;70.90;;;;;;5103470;27;19930;-61
2023/08/19 07:29:09;;;;;;;;;;;23.50;70.90;;;;;;5118385;27;19931;-61
2023/08/19 07:31:36;;;;;;;;;;;23.50;70.90;;;;;;5114371;27;19969;-61
2023/08/19 07:34:03;;;;;;;;;;;23.50;70.90;;;;;;5102740;27;19931;-62
2023/08/19 07:36:29;;;;;;;;;;;23.50;70.80;;;;;;5100519;28;19950;-61
2023/08/19 07:38:56;;;;;;;;;;;23.50;70.90;;;;;;5112659;27;19923;-62
2023/08/19 07:41:23;;;;;;;;;;;23.60;71.00;;;;;;5104757;28;19923;-62
2023/08/19 07:43:51;;;;;;;;;;;23.60;71.00;;;;;;5115472;27;19937;-61
2023/08/19 07:46:18;;;;;;;;;;;23.50;70.90;;;;;;5114497;27;19934;-62
2023/08/19 07:48:45;;;;;;;;;;;23.50;70.90;;;;;;5119413;27;19990;-62
2023/08/19 07:51:12;;;;;;;;;;;23.50;70.90;;;;;;5102014;28;19931;-62
2023/08/19 07:53:38;;;;;;;;;;;23.50;71.00;;;;;;5093673;28;20026;-61
2023/08/19 07:56:05;;;;;;;;;;;23.50;70.90;;;;;;5097489;28;19977;-62
2023/08/19 07:58:32;;;;;;;;;;;23.50;70.90;;;;;;5133768;27;19927;-62
2023/08/19 08:01:00;;;;;;;;;;;23.50;70.90;;;;;;5101976;27;19931;-62
2023/08/19 08:03:27;;;;;;;;;;;23.50;71.00;;;;;;5095652;28;19927;-61
2023/08/19 08:05:54;;;;;;;;;;;23.60;71.10;;;;;;5114274;27;20317;-61
2023/08/19 08:08:20;;;;;;;;;;;23.60;71.10;;;;;;5096680;28;20067;-62
2023/08/19 08:10:47;;;;;;;;;;;23.60;71.20;;;;;;5093564;28;19940;-61
2023/08/19 08:13:14;;;;;;;;;;;23.60;71.30;;;;;;5095497;28;20347;-61
2023/08/19 08:15:41;;;;;;;;;;;23.60;71.30;;;;;;5092570;27;19928;-61
2023/08/19 08:18:09;;;;;;;;;;;23.60;71.40;;;;;;5107092;28;19930;-62
2023/08/19 08:20:35;;;;;;;;;;;23.60;71.60;;;;;;5103911;27;19923;-62
2023/08/19 08:23:02;;;;;;;;;;;23.60;71.70;;;;;;5110371;28;19924;-62
2023/08/19 08:25:29;;;;;;;;;;;23.60;71.70;;;;;;5125620;27;19931;-62
2023/08/19 08:27:56;;;;;;;;;;;23.60;71.90;;;;;;5107442;28;19924;-61
2023/08/19 08:30:22;;;;;;;;;;;23.60;72.00;;;;;;5122724;27;19938;-62
2023/08/19 08:32:50;;;;;;;;;;;23.60;72.00;;;;;;5097881;28;19935;-62
2023/08/19 08:35:18;;;;;;;;;;;23.60;72.00;;;;;;5101691;27;19930;-62
2023/08/19 08:37:45;;;;;;;;;;;23.60;72.10;;;;;;5113016;27;19981;-61
2023/08/19 08:40:12;;;;;;;;;;;23.70;72.20;;;;;;5114565;27;19930;-62
2023/08/19 08:42:39;;;;;;;;;;;23.60;72.20;;;;;;5096163;27;19928;-62
2023/08/19 08:45:06;;;;;;;;;;;23.70;72.60;;;;;;5100574;28;19978;-62
2023/08/19 08:47:33;;;;;;;;;;;23.70;72.50;;;;;;5092615;27;19950;-62
2023/08/19 08:49:59;;;;;;;;;;;23.70;72.60;;;;;;5092588;28;19931;-62
2023/08/19 08:52:28;;;;;;;;;;;23.70;73.30;;;;;;5095195;28;20296;-62
2023/08/19 08:54:55;;;;;;;;;;;23.70;74.30;;;;;;5102694;27;19923;-62
2023/08/19 08:57:22;;;;;;;;;;;23.70;75.10;;;;;;5116898;27;20155;-62
2023/08/19 08:59:48;;;;;;;;;;;23.80;75.30;;;;;;5105703;27;19924;-62
2023/08/19 09:02:15;;;;;;;;;;;23.80;75.60;;;;;;5094465;28;19969;-62
2023/08/19 09:04:44;;;;;;;;;;;23.80;77.00;;;;;;5108205;27;19929;-62
2023/08/19 09:07:11;;;;;;;;;;;23.90;76.90;;;;;;5091803;28;19958;-62
2023/08/19 09:09:40;;;;;;;;;;;23.90;76.80;;;;;;5127107;27;19924;-62
2023/08/19 09:12:08;;;;;;;;;;;23.90;77.10;;;;;;5112348;27;19976;-61
2023/08/19 09:14:36;;;;;;;;;;;23.90;77.10;;;;;;5090952;28;19928;-62
2023/08/19 09:17:03;;;;;;;;;;;24.00;77.30;;;;;;5121391;27;20018;-64
2023/08/19 09:19:30;;;;;;;;;;;24.00;77.50;;;;;;5101565;27;19953;-66
2023/08/19 09:21:56;;;;;;;;;;;24.00;78.20;;;;;;5122277;27;19923;-63
2023/08/19 09:24:23;;;;;;;;;;;24.10;79.00;;;;;;5099174;28;19928;-64
2023/08/19 09:26:57;;;;;;;;;;;24.10;78.60;;;;;;5103525;27;19931;-64
2023/08/19 09:29:24;;;;;;;;;;;24.10;78.30;;;;;;5095678;28;19927;-64
2023/08/19 09:31:52;;;;;;;;;;;24.20;78.70;;;;;;5095510;28;19966;-62
2023/08/19 09:34:19;;;;;;;;;;;24.20;78.90;;;;;;5118934;27;19924;-63
2023/08/19 09:36:46;;;;;;;;;;;24.20;79.20;;;;;;5101798;27;19932;-64
2023/08/19 09:39:13;;;;;;;;;;;24.30;78.70;;;;;;5100188;28;19924;-64
2023/08/19 09:41:40;;;;;;;;;;;24.30;79.00;;;;;;5093915;28;19931;-64
2023/08/19 09:44:13;;;;;;;;;;;24.30;78.80;;;;;;5092579;28;19977;-65
2023/08/19 09:46:41;;;;;;;;;;;24.30;78.70;;;;;;5123066;27;19928;-63
2023/08/19 09:49:08;;;;;;;;;;;24.30;78.60;;;;;;5110683;28;19923;-64
2023/08/19 09:51:35;;;;;;;;;;;24.40;78.60;;;;;;5096427;28;19924;-64
2023/08/19 09:54:08;;;;;;;;;;;24.40;78.60;;;;;;5093146;28;19931;-64
2023/08/19 09:56:35;;;;;;;;;;;24.40;78.40;;;;;;5105185;28;19949;-64
2023/08/19 09:59:02;;;;;;;;;;;24.40;78.80;;;;;;5101923;28;19927;-64
2023/08/19 10:01:31;;;;;;;;;;;24.40;78.80;;;;;;5098501;27;19923;-64
2023/08/19 10:03:58;;;;;;;;;;;24.50;79.10;;;;;;5092502;28;19924;-64
2023/08/19 10:06:25;;;;;;;;;;;24.50;79.30;;;;;;5094301;28;19923;-64
2023/08/19 10:08:52;;;;;;;;;;;24.50;78.70;;;;;;5104026;27;19963;-65
2023/08/19 10:11:19;;;;;;;;;;;24.60;79.20;;;;;;5114589;27;20341;-65
2023/08/19 10:13:46;;;;;;;;;;;24.60;79.10;;;;;;5104481;27;19924;-64
2023/08/19 10:16:13;;;;;;;;;;;24.60;79.00;;;;;;5099782;28;19928;-65
2023/08/19 10:18:42;;;;;;;;;;;24.60;79.10;;;;;;5124610;27;19953;-65
2023/08/19 10:21:09;;;;;;;;;;;24.70;80.30;;;;;;5110518;27;19928;-65
2023/08/19 10:23:36;;;;;;;;;;;24.70;79.50;;;;;;5104819;28;19924;-64
2023/08/19 10:26:03;;;;;;;;;;;24.70;79.40;;;;;;5123252;27;19928;-64
2023/08/19 10:28:30;;;;;;;;;;;24.70;79.30;;;;;;5102384;27;19967;-64
2023/08/19 10:31:06;;;;;;;;;;;24.80;79.50;;;;;;5104013;28;19923;-64
2023/08/19 10:33:36;;;;;;;;;;;24.80;79.60;;;;;;5099521;28;20027;-63
2023/08/19 10:36:04;;;;;;;;;;;24.80;79.10;;;;;;5115641;27;19928;-64
2023/08/19 10:38:40;;;;;;;;;;;24.80;79.70;;;;;;5097112;28;19971;-64
2023/08/19 10:41:07;;;;;;;;;;;24.80;79.80;;;;;;5105587;28;20023;-64
2023/08/19 10:43:54;;;;;;;;;;;24.90;79.70;;;;;;5096945;28;19973;-63
2023/08/19 10:46:21;;;;;;;;;;;24.90;79.50;;;;;;5094751;28;20284;-64
2023/08/19 10:48:49;;;;;;;;;;;25.00;79.40;;;;;;5102780;27;19939;-64
2023/08/19 10:51:19;;;;;;;;;;;25.00;79.10;;;;;;5108744;27;19930;-64
2023/08/19 10:53:49;;;;;;;;;;;25.00;79.00;;;;;;5106372;28;20192;-64
2023/08/19 10:56:17;;;;;;;;;;;25.10;79.00;;;;;;5112482;27;19992;-63
2023/08/19 10:58:44;;;;;;;;;;;25.10;78.60;;;;;;5109061;27;19923;-64
2023/08/19 11:01:11;;;;;;;;;;;25.10;77.80;;;;;;5120308;27;19924;-64
2023/08/19 11:03:38;;;;;;;;;;;25.10;77.40;;;;;;5103046;27;19969;-62
2023/08/19 11:06:05;;;;;;;;;;;25.20;77.60;;;;;;5126813;27;19934;-63
2023/08/19 11:08:42;;;;;;;;;;;25.20;77.00;;;;;;5115955;27;20354;-65
2023/08/19 11:11:08;;;;;;;;;;;25.20;76.60;;;;;;5101244;28;19968;-64
2023/08/19 11:13:35;;;;;;;;;;;25.30;76.70;;;;;;5118016;27;19931;-64
2023/08/19 11:16:03;;;;;;;;;;;25.30;76.80;;;;;;5092712;28;19931;-64
2023/08/19 11:18:29;;;;;;;;;;;25.30;76.30;;;;;;5129148;27;19992;-63
2023/08/19 11:20:56;;;;;;;;;;;25.30;76.10;;;;;;5108899;28;20632;-64
2023/08/19 11:23:26;;;;;;;;;;;25.40;76.00;;;;;;5136273;27;19931;-64
2023/08/19 11:25:54;;;;;;;;;;;25.40;75.50;;;;;;5100372;27;19931;-64
2023/08/19 11:28:20;;;;;;;;;;;25.40;75.20;;;;;;5104537;28;19959;-64
2023/08/19 11:30:47;;;;;;;;;;;25.50;75.40;;;;;;5102544;27;20000;-64
2023/08/19 11:33:16;;;;;;;;;;;25.50;75.30;;;;;;5103556;27;20338;-64
2023/08/19 11:35:43;;;;;;;;;;;25.50;75.00;;;;;;5092062;27;20021;-64
2023/08/19 11:38:12;;;;;;;;;;;25.60;75.10;;;;;;5102415;28;19923;-63
2023/08/19 11:40:39;;;;;;;;;;;25.60;74.90;;;;;;5117385;27;19930;-65
2023/08/19 11:43:08;;;;;;;;;;;25.60;75.20;;;;;;5098812;27;20086;-63
2023/08/19 11:45:36;;;;;;;;;;;25.60;74.30;;;;;;5086661;28;19932;-62
2023/08/19 11:48:03;;;;;;;;;;;25.60;73.80;;;;;;5108933;28;20019;-64
2023/08/19 11:50:34;;;;;;;;;;;25.60;73.50;;;;;;5097324;28;19931;-64
2023/08/19 11:53:01;;;;;;;;;;;25.70;73.80;;;;;;5103997;27;19930;-64
2023/08/19 11:55:28;;;;;;;;;;;25.70;73.60;;;;;;5100938;27;19985;-64
2023/08/19 11:57:55;;;;;;;;;;;25.70;73.60;;;;;;5103814;27;19923;-64
2023/08/19 12:00:25;;;;;;;;;;;25.70;73.60;;;;;;5097337;28;19924;-65
2023/08/19 12:02:52;;;;;;;;;;;25.70;73.30;;;;;;5114602;27;19931;-64
2023/08/19 12:05:22;;;;;;;;;;;25.70;73.00;;;;;;5097719;27;19946;-65
2023/08/19 12:07:49;;;;;;;;;;;25.70;73.20;;;;;;5126851;27;19927;-64
2023/08/19 12:10:15;;;;;;;;;;;25.70;73.00;;;;;;5126841;27;20036;-65
2023/08/19 12:12:43;;;;;;;;;;;25.70;73.00;;;;;;5117056;27;19931;-64
2023/08/19 12:15:10;;;;;;;;;;;25.70;72.90;;;;;;5091494;28;19938;-65
2023/08/19 12:17:38;;;;;;;;;;;25.70;72.70;;;;;;5123326;27;19934;-64
2023/08/19 12:20:06;;;;;;;;;;;25.70;72.70;;;;;;5098977;27;19927;-64
2023/08/19 12:22:33;;;;;;;;;;;25.70;72.40;;;;;;5093878;28;19924;-64
2023/08/19 12:24:59;;;;;;;;;;;25.80;72.50;;;;;;5090138;28;19931;-65
2023/08/19 12:27:26;;;;;;;;;;;25.80;72.70;;;;;;5086801;28;19924;-62
2023/08/19 12:29:53;;;;;;;;;;;25.80;72.90;;;;;;5093768;28;19927;-64
2023/08/19 12:32:19;;;;;;;;;;;25.80;73.10;;;;;;5096830;28;20425;-65
2023/08/19 12:34:49;;;;;;;;;;;25.80;72.80;;;;;;5097646;27;20001;-63
2023/08/19 12:37:16;;;;;;;;;;;25.80;72.80;;;;;;5123767;27;19973;-65
2023/08/19 12:39:42;;;;;;;;;;;25.90;73.00;;;;;;5096897;28;19964;-64
2023/08/19 12:42:09;;;;;;;;;;;25.90;72.90;;;;;;5096610;28;19928;-64
2023/08/19 12:44:36;;;;;;;;;;;25.90;72.70;;;;;;5096476;27;19924;-63
2023/08/19 12:47:03;;;;;;;;;;;25.90;72.70;;;;;;5128566;27;19950;-64
2023/08/19 12:49:29;;;;;;;;;;;25.90;72.60;;;;;;5102978;27;19928;-64
2023/08/19 12:51:57;;;;;;;;;;;25.90;72.50;;;;;;5105851;27;19927;-63
2023/08/19 12:54:24;;;;;;;;;;;26.00;72.60;;;;;;5096052;28;20748;-62
2023/08/19 12:56:51;;;;;;;;;;;26.00;72.50;;;;;;5091482;28;19927;-62
2023/08/19 12:59:18;;;;;;;;;;;26.00;72.70;;;;;;5096070;28;19928;-62
2023/08/19 13:01:44;;;;;;;;;;;26.00;72.70;;;;;;5099593;27;19928;-62
2023/08/19 13:04:11;;;;;;;;;;;26.00;72.70;;;;;;5094843;28;19924;-62
2023/08/19 13:06:38;;;;;;;;;;;26.00;72.90;;;;;;5078083;27;19924;-62
2023/08/19 13:09:06;;;;;;;;;;;26.00;72.80;;;;;;5123393;27;19927;-62
2023/08/19 13:11:33;;;;;;;;;;;26.00;72.60;;;;;;5097373;27;19977;-62
2023/08/19 13:14:00;;;;;;;;;;;26.00;72.60;;;;;;5120360;27;19934;-62
2023/08/19 13:16:27;;;;;;;;;;;26.10;72.60;;;;;;5081356;28;19928;-62
2023/08/19 13:18:54;;;;;;;;;;;26.00;72.90;;;;;;5091998;27;19927;-62
2023/08/19 13:21:21;;;;;;;;;;;26.10;73.40;;;;;;5111592;27;19936;-62
2023/08/19 13:23:47;;;;;;;;;;;26.10;73.40;;;;;;5097610;27;19985;-61
2023/08/19 13:26:15;;;;;;;;;;;26.10;73.30;;;;;;5099962;27;20326;-62
2023/08/19 13:28:42;;;;;;;;;;;26.10;73.60;;;;;;5099562;27;19923;-62
2023/08/19 13:31:09;;;;;;;;;;;26.10;73.40;;;;;;5079230;28;19924;-62
2023/08/19 13:33:36;;;;;;;;;;;26.10;73.40;;;;;;5092248;28;19928;-61
2023/08/19 13:36:03;;;;;;;;;;;26.10;73.60;;;;;;5097592;28;19927;-61
2023/08/19 13:38:29;;;;;;;;;;;26.10;73.80;;;;;;5096000;28;19967;-61
2023/08/19 13:40:56;;;;;;;;;;;26.10;73.80;;;;;;5114267;27;19923;-62
2023/08/19 13:43:24;;;;;;;;;;;26.10;74.00;;;;;;5094284;28;19992;-61
2023/08/19 13:45:51;;;;;;;;;;;26.10;74.30;;;;;;5126144;27;19924;-61
2023/08/19 13:48:18;;;;;;;;;;;26.10;74.20;;;;;;5097684;28;19924;-62
2023/08/19 13:50:45;;;;;;;;;;;26.10;74.20;;;;;;5093384;28;19974;-62
2023/08/19 13:53:12;;;;;;;;;;;26.10;74.10;;;;;;5119545;27;19924;-60
2023/08/19 13:55:41;;;;;;;;;;;26.10;74.20;;;;;;5090924;28;19981;-61
2023/08/19 13:58:08;;;;;;;;;;;26.10;74.30;;;;;;5099722;28;19927;-61
2023/08/19 14:00:36;;;;;;;;;;;26.10;74.40;;;;;;5103257;28;19946;-61
2023/08/19 14:03:03;;;;;;;;;;;26.00;74.40;;;;;;5090536;28;19977;-61
2023/08/19 14:05:30;;;;;;;;;;;26.00;74.40;;;;;;5122021;27;19977;-62
2023/08/19 14:07:57;;;;;;;;;;;26.00;74.50;;;;;;5092637;28;19928;-63
2023/08/19 14:10:24;;;;;;;;;;;26.00;74.60;;;;;;5095554;28;19924;-61
2023/08/19 14:12:50;;;;;;;;;;;26.00;74.60;;;;;;5131020;27;19924;-61
2023/08/19 14:15:17;;;;;;;;;;;26.00;74.60;;;;;;5088585;28;19931;-62
2023/08/19 14:17:45;;;;;;;;;;;26.00;74.70;;;;;;5116448;28;19924;-63